Time;durP1;ratioP1;P1;durP2;ratioP2;P2;SDS_P1;SDS_P2;PMS_P1;PMS_P2;Temp;Humidity;BMP_temperature;BMP_pressure;BME280_temperature;BME280_humidity;BME280_pressure;Samples;Min_cycle;Max_cycle;Signal;HPM_P1;HPM_P2
2022/11/13 00:00:16;;;;;;;0.00;0.00;;;;;;;;;;1753239;28;20198;-70
2022/11/13 00:01:08;;;;;;;0.00;0.00;;;;;;;;;;1753296;28;20252;-70
2022/11/13 00:02:00;;;;;;;0.00;0.00;;;;;;;;;;1752713;28;20284;-70
2022/11/13 00:02:51;;;;;;;0.00;0.00;;;;;;;;;;1752955;28;20235;-70
2022/11/13 00:03:43;;;;;;;0.00;0.00;;;;;;;;;;1753249;28;20206;-70
2022/11/13 00:04:34;;;;;;;0.00;0.00;;;;;;;;;;1753142;28;20622;-70
2022/11/13 00:05:28;;;;;;;0.00;0.00;;;;;;;;;;1753531;28;20239;-70
2022/11/13 00:06:19;;;;;;;0.00;0.00;;;;;;;;;;1753237;28;20627;-70
2022/11/13 00:07:11;;;;;;;0.00;0.00;;;;;;;;;;1753029;28;20193;-70
2022/11/13 00:08:02;;;;;;;0.10;0.10;;;;;;;;;;1753086;28;20240;-70
2022/11/13 00:08:56;;;;;;;0.00;0.00;;;;;;;;;;1753183;28;20328;-70
2022/11/13 00:09:47;;;;;;;0.00;0.00;;;;;;;;;;1753402;28;20251;-70
2022/11/13 00:10:39;;;;;;;0.00;0.00;;;;;;;;;;1753412;28;20319;-70
2022/11/13 00:11:30;;;;;;;0.00;0.00;;;;;;;;;;1753381;28;20251;-70
2022/11/13 00:12:22;;;;;;;0.00;0.00;;;;;;;;;;1752731;28;20635;-70
2022/11/13 00:13:13;;;;;;;0.00;0.00;;;;;;;;;;1752916;28;20673;-70
2022/11/13 00:14:05;;;;;;;0.00;0.00;;;;;;;;;;1753068;28;20197;-70
2022/11/13 00:14:56;;;;;;;0.00;0.00;;;;;;;;;;1753345;28;20233;-70
2022/11/13 00:15:56;;;;;;;0.00;0.00;;;;;;;;;;1752982;28;20205;-70
2022/11/13 00:16:48;;;;;;;0.00;0.00;;;;;;;;;;1753157;28;20190;-70
2022/11/13 00:17:39;;;;;;;0.00;0.00;;;;;;;;;;1753256;28;20245;-70
2022/11/13 00:18:32;;;;;;;0.00;0.00;;;;;;;;;;1757618;28;20266;-70
2022/11/13 00:19:23;;;;;;;0.00;0.00;;;;;;;;;;1759961;28;20228;-70
2022/11/13 00:20:15;;;;;;;0.00;0.00;;;;;;;;;;1760553;28;20205;-70
2022/11/13 00:21:08;;;;;;;0.00;0.00;;;;;;;;;;1759948;28;20671;-71
2022/11/13 00:22:00;;;;;;;0.00;0.00;;;;;;;;;;1759753;28;20266;-70
2022/11/13 00:22:52;;;;;;;0.00;0.00;;;;;;;;;;1760017;28;20242;-70
2022/11/13 00:23:44;;;;;;;0.00;0.00;;;;;;;;;;1760043;28;20647;-70
2022/11/13 00:24:35;;;;;;;0.00;0.00;;;;;;;;;;1754606;28;20237;-70
2022/11/13 00:25:27;;;;;;;0.00;0.00;;;;;;;;;;1760139;28;20216;-70
2022/11/13 00:26:19;;;;;;;0.00;0.00;;;;;;;;;;1760300;28;20243;-70
2022/11/13 00:27:11;;;;;;;0.00;0.00;;;;;;;;;;1759924;28;20196;-70
2022/11/13 00:28:02;;;;;;;0.00;0.00;;;;;;;;;;1760188;28;20800;-70
2022/11/13 00:28:54;;;;;;;0.00;0.00;;;;;;;;;;1759692;28;20232;-70
2022/11/13 00:29:46;;;;;;;0.00;0.00;;;;;;;;;;1760021;28;20609;-70
2022/11/13 00:30:38;;;;;;;0.00;0.00;;;;;;;;;;1760343;28;20230;-70
2022/11/13 00:31:29;;;;;;;0.00;0.00;;;;;;;;;;1753004;28;20220;-70
2022/11/13 00:32:21;;;;;;;0.00;0.00;;;;;;;;;;1752766;28;20229;-70
2022/11/13 00:33:12;;;;;;;0.00;0.00;;;;;;;;;;1759859;28;20594;-70
2022/11/13 00:34:04;;;;;;;0.00;0.00;;;;;;;;;;1755431;28;20223;-70
2022/11/13 00:34:55;;;;;;;0.00;0.00;;;;;;;;;;1753232;28;20206;-70
2022/11/13 00:35:47;;;;;;;0.00;0.00;;;;;;;;;;1753065;28;20202;-70
2022/11/13 00:36:39;;;;;;;0.00;0.00;;;;;;;;;;1753117;28;20645;-70
2022/11/13 00:37:31;;;;;;;0.00;0.00;;;;;;;;;;1752604;28;20206;-70
2022/11/13 00:38:23;;;;;;;0.00;0.00;;;;;;;;;;1752830;28;20615;-70
2022/11/13 00:39:15;;;;;;;0.00;0.00;;;;;;;;;;1753058;28;20301;-70
2022/11/13 00:40:06;;;;;;;0.00;0.00;;;;;;;;;;1753392;28;20202;-70
2022/11/13 00:40:58;;;;;;;0.00;0.00;;;;;;;;;;1753188;28;20284;-70
2022/11/13 00:41:49;;;;;;;0.00;0.00;;;;;;;;;;1752751;28;20656;-70
2022/11/13 00:42:41;;;;;;;0.00;0.00;;;;;;;;;;1753240;28;20206;-70
2022/11/13 00:43:32;;;;;;;0.00;0.00;;;;;;;;;;1753278;28;20223;-70
2022/11/13 00:44:25;;;;;;;0.00;0.00;;;;;;;;;;1756944;28;20458;-70
2022/11/13 00:45:16;;;;;;;0.00;0.00;;;;;;;;;;1753824;28;20247;-70
2022/11/13 00:46:08;;;;;;;0.00;0.00;;;;;;;;;;1754816;28;20591;-70
2022/11/13 00:46:59;;;;;;;0.00;0.00;;;;;;;;;;1754941;28;20201;-70
2022/11/13 00:47:51;;;;;;;0.00;0.00;;;;;;;;;;1754939;28;20249;-70
2022/11/13 00:48:42;;;;;;;0.00;0.00;;;;;;;;;;1754975;28;20237;-70
2022/11/13 00:49:34;;;;;;;0.00;0.00;;;;;;;;;;1755823;28;20227;-70
2022/11/13 00:50:25;;;;;;;0.00;0.00;;;;;;;;;;1755151;28;20249;-70
2022/11/13 00:51:18;;;;;;;0.00;0.00;;;;;;;;;;1755215;28;20284;-70
2022/11/13 00:52:10;;;;;;;0.00;0.00;;;;;;;;;;1758326;28;20212;-70
2022/11/13 00:53:02;;;;;;;0.00;0.00;;;;;;;;;;1762216;28;20421;-70
2022/11/13 00:53:53;;;;;;;0.00;0.00;;;;;;;;;;1756401;28;20233;-70
2022/11/13 00:54:45;;;;;;;0.00;0.00;;;;;;;;;;1758820;28;20721;-70
2022/11/13 00:55:36;;;;;;;0.00;0.00;;;;;;;;;;1753491;28;20513;-70
2022/11/13 00:56:29;;;;;;;0.00;0.00;;;;;;;;;;1758940;28;20205;-70
2022/11/13 00:57:20;;;;;;;0.00;0.00;;;;;;;;;;1762061;28;20243;-70
2022/11/13 00:58:12;;;;;;;0.00;0.00;;;;;;;;;;1762291;28;20193;-70
2022/11/13 00:59:03;;;;;;;0.00;0.00;;;;;;;;;;1761665;28;20694;-70
2022/11/13 00:59:55;;;;;;;0.00;0.00;;;;;;;;;;1762136;28;20208;-70
2022/11/13 01:00:46;;;;;;;0.00;0.00;;;;;;;;;;1761595;28;20200;-70
2022/11/13 01:01:38;;;;;;;0.00;0.00;;;;;;;;;;1762055;28;20914;-70
2022/11/13 01:02:30;;;;;;;0.00;0.00;;;;;;;;;;1754716;28;20797;-70
2022/11/13 01:03:22;;;;;;;0.00;0.00;;;;;;;;;;1754878;28;20202;-70
2022/11/13 01:04:13;;;;;;;0.00;0.00;;;;;;;;;;1754956;28;20297;-70
2022/11/13 01:05:05;;;;;;;0.00;0.00;;;;;;;;;;1755129;28;20206;-70
2022/11/13 01:05:56;;;;;;;0.00;0.00;;;;;;;;;;1760607;28;20250;-70
2022/11/13 01:06:48;;;;;;;0.00;0.00;;;;;;;;;;1761676;28;20216;-70
2022/11/13 01:07:41;;;;;;;0.00;0.00;;;;;;;;;;1761829;28;20212;-70
2022/11/13 01:08:33;;;;;;;0.00;0.00;;;;;;;;;;1761976;28;20732;-70
2022/11/13 01:09:24;;;;;;;0.00;0.00;;;;;;;;;;1761947;28;20894;-70
2022/11/13 01:10:16;;;;;;;0.00;0.00;;;;;;;;;;1762200;28;20220;-70
2022/11/13 01:11:08;;;;;;;0.00;0.00;;;;;;;;;;1761545;28;20528;-70
2022/11/13 01:12:00;;;;;;;0.00;0.00;;;;;;;;;;1761635;28;20654;-70
2022/11/13 01:12:51;;;;;;;0.00;0.00;;;;;;;;;;1761982;28;20270;-70
2022/11/13 01:13:44;;;;;;;0.00;0.00;;;;;;;;;;1761305;28;20212;-70
2022/11/13 01:14:35;;;;;;;0.00;0.00;;;;;;;;;;1762074;28;20236;-70
2022/11/13 01:15:27;;;;;;;0.00;0.00;;;;;;;;;;1758416;28;20579;-70
2022/11/13 01:16:20;;;;;;;0.00;0.00;;;;;;;;;;1754749;28;20247;-71
2022/11/13 01:17:12;;;;;;;0.00;0.00;;;;;;;;;;1754701;28;20197;-70
2022/11/13 01:18:04;;;;;;;0.00;0.00;;;;;;;;;;1754950;28;20248;-70
2022/11/13 01:18:56;;;;;;;0.00;0.00;;;;;;;;;;1754644;28;20198;-70
2022/11/13 01:19:47;;;;;;;0.00;0.00;;;;;;;;;;1747791;28;20238;-70
2022/11/13 01:20:39;;;;;;;0.00;0.00;;;;;;;;;;1757430;28;20630;-70
2022/11/13 01:21:30;;;;;;;0.00;0.00;;;;;;;;;;1761521;28;20626;-70
2022/11/13 01:22:22;;;;;;;0.00;0.00;;;;;;;;;;1761483;28;20269;-70
2022/11/13 01:23:14;;;;;;;0.00;0.00;;;;;;;;;;1762003;28;20288;-70
2022/11/13 01:24:07;;;;;;;0.00;0.00;;;;;;;;;;1755344;28;20578;-70
2022/11/13 01:24:58;;;;;;;0.00;0.00;;;;;;;;;;1759619;28;20480;-70
2022/11/13 01:25:50;;;;;;;0.00;0.00;;;;;;;;;;1758971;28;20231;-70
2022/11/13 01:26:41;;;;;;;0.00;0.00;;;;;;;;;;1761881;28;20219;-70
2022/11/13 01:27:36;;;;;;;0.00;0.00;;;;;;;;;;1761391;28;20254;-70
2022/11/13 01:28:27;;;;;;;0.00;0.00;;;;;;;;;;1761659;28;20236;-70
2022/11/13 01:29:19;;;;;;;0.00;0.00;;;;;;;;;;1761871;28;20232;-70
2022/11/13 01:30:10;;;;;;;0.00;0.00;;;;;;;;;;1761954;28;20224;-70
2022/11/13 01:31:04;;;;;;;0.00;0.00;;;;;;;;;;1761840;28;20193;-70
2022/11/13 01:31:56;;;;;;;0.00;0.00;;;;;;;;;;1761312;28;20193;-70
2022/11/13 01:32:47;;;;;;;0.00;0.00;;;;;;;;;;1758316;28;20213;-70
2022/11/13 01:33:39;;;;;;;0.00;0.00;;;;;;;;;;1760316;28;20205;-70
2022/11/13 01:34:30;;;;;;;0.00;0.00;;;;;;;;;;1761877;28;20243;-70
2022/11/13 01:35:22;;;;;;;0.00;0.00;;;;;;;;;;1762114;28;20205;-70
2022/11/13 01:36:14;;;;;;;0.00;0.00;;;;;;;;;;1761766;28;20224;-70
2022/11/13 01:37:06;;;;;;;0.00;0.00;;;;;;;;;;1761626;28;20614;-70
2022/11/13 01:37:57;;;;;;;0.00;0.00;;;;;;;;;;1761574;28;20688;-70
2022/11/13 01:38:51;;;;;;;0.00;0.00;;;;;;;;;;1761401;28;20232;-70
2022/11/13 01:39:42;;;;;;;0.00;0.00;;;;;;;;;;1761791;28;20215;-70
2022/11/13 01:40:34;;;;;;;0.00;0.00;;;;;;;;;;1762024;28;20526;-70
2022/11/13 01:41:26;;;;;;;0.00;0.00;;;;;;;;;;1761415;28;20420;-70
2022/11/13 01:42:18;;;;;;;0.00;0.00;;;;;;;;;;1761204;28;20243;-70
2022/11/13 01:43:19;;;;;;;0.00;0.00;;;;;;;;;;1761520;28;20668;-70
2022/11/13 01:44:13;;;;;;;0.00;0.00;;;;;;;;;;1761670;28;20473;-70
2022/11/13 01:45:19;;;;;;;0.00;0.00;;;;;;;;;;1762074;28;20228;-70
2022/11/13 01:46:18;;;;;;;0.00;0.00;;;;;;;;;;1760869;28;20197;-70
2022/11/13 01:47:09;;;;;;;0.00;0.00;;;;;;;;;;1761269;28;20200;-70
2022/11/13 01:48:01;;;;;;;0.00;0.00;;;;;;;;;;1761606;28;20382;-70
2022/11/13 01:48:54;;;;;;;0.00;0.00;;;;;;;;;;1761286;28;20228;-70
2022/11/13 01:49:46;;;;;;;0.00;0.00;;;;;;;;;;1761904;28;20197;-70
2022/11/13 01:50:38;;;;;;;0.00;0.00;;;;;;;;;;1761676;28;20236;-70
2022/11/13 01:51:32;;;;;;;0.00;0.00;;;;;;;;;;1761678;28;20201;-70
2022/11/13 01:52:25;;;;;;;0.00;0.00;;;;;;;;;;1759217;28;20227;-70
2022/11/13 01:53:17;;;;;;;0.00;0.00;;;;;;;;;;1761193;28;20213;-70
2022/11/13 01:54:11;;;;;;;0.00;0.00;;;;;;;;;;1755555;28;20314;-70
2022/11/13 01:55:08;;;;;;;0.00;0.00;;;;;;;;;;1756598;28;20624;-70
2022/11/13 01:55:59;;;;;;;0.00;0.00;;;;;;;;;;1751704;28;20256;-70
2022/11/13 01:56:52;;;;;;;0.00;0.00;;;;;;;;;;1760764;28;20204;-70
2022/11/13 01:57:43;;;;;;;0.00;0.00;;;;;;;;;;1761696;28;20205;-70
2022/11/13 01:58:35;;;;;;;0.00;0.00;;;;;;;;;;1761375;28;20346;-70
2022/11/13 01:59:28;;;;;;;0.00;0.00;;;;;;;;;;1761514;28;20204;-70
2022/11/13 02:00:20;;;;;;;0.00;0.00;;;;;;;;;;1761999;28;20208;-70
2022/11/13 02:01:11;;;;;;;0.00;0.00;;;;;;;;;;1761528;28;20212;-70
2022/11/13 02:02:03;;;;;;;0.00;0.00;;;;;;;;;;1761308;28;20534;-70
2022/11/13 02:02:54;;;;;;;0.00;0.00;;;;;;;;;;1761686;28;20261;-70
2022/11/13 02:03:45;;;;;;;0.00;0.00;;;;;;;;;;1761202;28;20215;-70
2022/11/13 02:04:38;;;;;;;0.00;0.00;;;;;;;;;;1761773;28;20246;-70
2022/11/13 02:05:29;;;;;;;0.00;0.00;;;;;;;;;;1761782;28;20918;-71
2022/11/13 02:06:21;;;;;;;0.00;0.00;;;;;;;;;;1761679;28;20197;-70
2022/11/13 02:07:14;;;;;;;0.00;0.00;;;;;;;;;;1761271;28;20200;-70
2022/11/13 02:08:06;;;;;;;0.00;0.00;;;;;;;;;;1761655;28;20257;-70
2022/11/13 02:08:57;;;;;;;0.00;0.00;;;;;;;;;;1761217;28;20693;-70
2022/11/13 02:09:51;;;;;;;0.00;0.00;;;;;;;;;;1761592;28;20254;-70
2022/11/13 02:10:43;;;;;;;0.00;0.00;;;;;;;;;;1761876;28;20546;-70
2022/11/13 02:11:34;;;;;;;0.00;0.00;;;;;;;;;;1761543;28;20595;-70
2022/11/13 02:12:36;;;;;;;0.00;0.00;;;;;;;;;;1761052;28;20201;-70
2022/11/13 02:13:27;;;;;;;0.00;0.00;;;;;;;;;;1761198;28;20224;-70
2022/11/13 02:14:20;;;;;;;0.00;0.00;;;;;;;;;;1761225;28;20666;-70
2022/11/13 02:15:11;;;;;;;0.00;0.00;;;;;;;;;;1761895;28;20239;-70
2022/11/13 02:16:04;;;;;;;0.00;0.00;;;;;;;;;;1761266;28;20216;-70
2022/11/13 02:16:56;;;;;;;0.00;0.00;;;;;;;;;;1761308;28;20209;-70
2022/11/13 02:17:50;;;;;;;0.00;0.00;;;;;;;;;;1754348;28;20206;-70
2022/11/13 02:18:42;;;;;;;0.00;0.00;;;;;;;;;;1760561;28;20251;-70
2022/11/13 02:19:36;;;;;;;0.00;0.00;;;;;;;;;;1761483;28;20484;-70
2022/11/13 02:20:32;;;;;;;0.00;0.00;;;;;;;;;;1759714;28;20720;-70
2022/11/13 02:21:29;;;;;;;0.00;0.00;;;;;;;;;;1758085;28;20261;-70
2022/11/13 02:22:25;;;;;;;0.00;0.00;;;;;;;;;;1760958;28;20236;-70
2022/11/13 02:23:21;;;;;;;0.00;0.00;;;;;;;;;;1761730;28;20205;-70
2022/11/13 02:24:19;;;;;;;0.00;0.00;;;;;;;;;;1754610;28;20511;-70
2022/11/13 02:25:12;;;;;;;0.00;0.00;;;;;;;;;;1760838;28;20235;-70
2022/11/13 02:26:03;;;;;;;0.00;0.00;;;;;;;;;;1759798;28;20208;-70
2022/11/13 02:26:57;;;;;;;0.00;0.00;;;;;;;;;;1761243;28;20205;-70
2022/11/13 02:27:49;;;;;;;0.00;0.00;;;;;;;;;;1761667;28;20230;-70
2022/11/13 02:28:41;;;;;;;0.00;0.00;;;;;;;;;;1761136;28;20284;-70
2022/11/13 02:29:32;;;;;;;0.00;0.00;;;;;;;;;;1761574;28;20641;-70
2022/11/13 02:30:24;;;;;;;0.00;0.00;;;;;;;;;;1761466;28;20181;-70
2022/11/13 02:31:16;;;;;;;0.00;0.00;;;;;;;;;;1761584;28;20205;-70
2022/11/13 02:32:07;;;;;;;0.00;0.00;;;;;;;;;;1760891;28;20606;-70
2022/11/13 02:32:59;;;;;;;0.00;0.00;;;;;;;;;;1761428;28;20664;-70
2022/11/13 02:33:50;;;;;;;0.00;0.00;;;;;;;;;;1761228;28;20269;-70
2022/11/13 02:34:42;;;;;;;0.00;0.00;;;;;;;;;;1761472;28;20648;-70
2022/11/13 02:35:37;;;;;;;0.00;0.00;;;;;;;;;;1761622;28;20672;-70
2022/11/13 02:36:29;;;;;;;0.00;0.00;;;;;;;;;;1761418;28;20201;-70
2022/11/13 02:37:20;;;;;;;0.00;0.00;;;;;;;;;;1761281;28;20603;-70
2022/11/13 02:38:12;;;;;;;0.00;0.00;;;;;;;;;;1757470;28;20291;-70
2022/11/13 02:39:05;;;;;;;0.00;0.00;;;;;;;;;;1755815;28;20717;-70
2022/11/13 02:39:58;;;;;;;0.00;0.00;;;;;;;;;;1761406;28;20304;-70
2022/11/13 02:40:49;;;;;;;0.00;0.00;;;;;;;;;;1757392;28;20240;-71
2022/11/13 02:41:41;;;;;;;0.00;0.00;;;;;;;;;;1760618;28;20262;-70
2022/11/13 02:42:33;;;;;;;0.00;0.00;;;;;;;;;;1760720;28;20242;-70
2022/11/13 02:43:25;;;;;;;0.00;0.00;;;;;;;;;;1761366;28;20530;-70
2022/11/13 02:44:16;;;;;;;0.00;0.00;;;;;;;;;;1761109;28;20229;-70
2022/11/13 02:45:08;;;;;;;0.00;0.00;;;;;;;;;;1761385;28;20220;-70
2022/11/13 02:45:59;;;;;;;0.00;0.00;;;;;;;;;;1760996;28;20635;-70
2022/11/13 02:46:51;;;;;;;0.00;0.00;;;;;;;;;;1758542;28;20284;-70
2022/11/13 02:47:43;;;;;;;0.00;0.00;;;;;;;;;;1753790;28;20264;-70
2022/11/13 02:48:35;;;;;;;0.00;0.00;;;;;;;;;;1754416;28;20515;-70
2022/11/13 02:49:26;;;;;;;0.00;0.00;;;;;;;;;;1754202;28;20237;-70
2022/11/13 02:50:18;;;;;;;0.00;0.00;;;;;;;;;;1754663;28;20220;-70
2022/11/13 02:51:09;;;;;;;0.00;0.00;;;;;;;;;;1753826;28;20973;-70
2022/11/13 02:52:01;;;;;;;0.00;0.00;;;;;;;;;;1756456;28;20202;-70
2022/11/13 02:52:52;;;;;;;0.00;0.00;;;;;;;;;;1761328;28;20247;-71
2022/11/13 02:53:44;;;;;;;0.00;0.00;;;;;;;;;;1760335;28;20221;-70
2022/11/13 02:54:35;;;;;;;0.00;0.00;;;;;;;;;;1760990;28;20233;-70
2022/11/13 02:55:29;;;;;;;0.00;0.00;;;;;;;;;;1761307;28;20200;-70
2022/11/13 02:56:20;;;;;;;0.00;0.00;;;;;;;;;;1759321;28;20237;-70
2022/11/13 02:57:12;;;;;;;0.00;0.00;;;;;;;;;;1761001;28;20587;-70
2022/11/13 02:58:03;;;;;;;0.00;0.00;;;;;;;;;;1761395;28;20612;-70
2022/11/13 02:58:55;;;;;;;0.00;0.00;;;;;;;;;;1761263;28;20197;-70
2022/11/13 02:59:46;;;;;;;0.00;0.00;;;;;;;;;;1761190;28;20648;-70
2022/11/13 03:00:38;;;;;;;0.00;0.00;;;;;;;;;;1761630;28;20205;-70
2022/11/13 03:01:29;;;;;;;0.00;0.00;;;;;;;;;;1760739;28;20232;-70
2022/11/13 03:02:21;;;;;;;0.00;0.00;;;;;;;;;;1760753;28;20200;-70
2022/11/13 03:03:12;;;;;;;0.00;0.00;;;;;;;;;;1754338;28;20233;-70
2022/11/13 03:04:04;;;;;;;0.00;0.00;;;;;;;;;;1759489;28;20758;-70
2022/11/13 03:04:55;;;;;;;0.00;0.00;;;;;;;;;;1761319;28;20243;-70
2022/11/13 03:05:49;;;;;;;0.00;0.00;;;;;;;;;;1754790;28;20195;-70
2022/11/13 03:06:40;;;;;;;0.00;0.00;;;;;;;;;;1754133;28;20676;-70
2022/11/13 03:07:32;;;;;;;0.00;0.00;;;;;;;;;;1760659;28;20296;-70
2022/11/13 03:08:24;;;;;;;0.00;0.00;;;;;;;;;;1760890;28;20202;-70
2022/11/13 03:09:16;;;;;;;0.00;0.00;;;;;;;;;;1761045;28;20342;-70
2022/11/13 03:10:09;;;;;;;0.00;0.00;;;;;;;;;;1761385;28;20235;-70
2022/11/13 03:11:07;;;;;;;0.00;0.00;;;;;;;;;;1761085;28;20224;-70
2022/11/13 03:11:58;;;;;;;0.00;0.00;;;;;;;;;;1760407;28;20181;-70
2022/11/13 03:12:50;;;;;;;0.00;0.00;;;;;;;;;;1761230;28;20620;-70
2022/11/13 03:13:41;;;;;;;0.00;0.00;;;;;;;;;;1760715;28;20270;-70
2022/11/13 03:14:33;;;;;;;0.00;0.00;;;;;;;;;;1760985;28;20200;-70
2022/11/13 03:15:25;;;;;;;0.00;0.00;;;;;;;;;;1761231;28;20232;-70
2022/11/13 03:16:17;;;;;;;0.00;0.00;;;;;;;;;;1760966;28;20613;-70
2022/11/13 03:17:08;;;;;;;0.00;0.00;;;;;;;;;;1760763;28;20705;-70
2022/11/13 03:18:01;;;;;;;0.00;0.00;;;;;;;;;;1761041;28;20197;-70
2022/11/13 03:18:53;;;;;;;0.00;0.00;;;;;;;;;;1760783;28;20204;-70
2022/11/13 03:19:44;;;;;;;0.00;0.00;;;;;;;;;;1761067;28;20242;-70
2022/11/13 03:20:37;;;;;;;0.00;0.00;;;;;;;;;;1758470;28;20534;-70
2022/11/13 03:21:28;;;;;;;0.00;0.00;;;;;;;;;;1760547;28;20219;-70
2022/11/13 03:22:20;;;;;;;0.00;0.00;;;;;;;;;;1756454;28;20204;-70
2022/11/13 03:23:11;;;;;;;0.00;0.00;;;;;;;;;;1761108;28;20200;-70
2022/11/13 03:24:03;;;;;;;0.00;0.00;;;;;;;;;;1756505;28;20194;-70
2022/11/13 03:24:54;;;;;;;0.00;0.00;;;;;;;;;;1758112;28;20257;-70
2022/11/13 03:25:46;;;;;;;0.00;0.00;;;;;;;;;;1759883;28;20244;-70
2022/11/13 03:26:39;;;;;;;0.00;0.00;;;;;;;;;;1761054;28;20507;-70
2022/11/13 03:27:32;;;;;;;0.00;0.00;;;;;;;;;;1760783;28;20243;-70
2022/11/13 03:28:23;;;;;;;0.00;0.00;;;;;;;;;;1761125;28;20658;-70
2022/11/13 03:29:15;;;;;;;0.00;0.00;;;;;;;;;;1756740;28;20424;-70
2022/11/13 03:30:06;;;;;;;0.00;0.00;;;;;;;;;;1757818;28;20323;-70
2022/11/13 03:30:58;;;;;;;0.00;0.00;;;;;;;;;;1748998;28;20197;-70
2022/11/13 03:31:49;;;;;;;0.00;0.00;;;;;;;;;;1760265;28;20250;-70
2022/11/13 03:32:42;;;;;;;0.00;0.00;;;;;;;;;;1758613;28;20255;-70
2022/11/13 03:33:33;;;;;;;0.00;0.00;;;;;;;;;;1754595;28;20206;-70
2022/11/13 03:34:26;;;;;;;0.00;0.00;;;;;;;;;;1754206;28;20600;-70
2022/11/13 03:35:17;;;;;;;0.00;0.00;;;;;;;;;;1756460;28;20222;-70
2022/11/13 03:36:09;;;;;;;0.00;0.00;;;;;;;;;;1761246;28;20200;-70
2022/11/13 03:37:00;;;;;;;0.00;0.00;;;;;;;;;;1761050;28;20235;-70
2022/11/13 03:37:52;;;;;;;0.00;0.00;;;;;;;;;;1761038;28;20239;-70
2022/11/13 03:38:43;;;;;;;0.00;0.00;;;;;;;;;;1760201;28;20248;-71
2022/11/13 03:39:35;;;;;;;0.00;0.00;;;;;;;;;;1761173;28;20262;-70
2022/11/13 03:40:27;;;;;;;0.00;0.00;;;;;;;;;;1761209;28;20220;-71
2022/11/13 03:41:19;;;;;;;0.00;0.00;;;;;;;;;;1761295;28;20261;-71
2022/11/13 03:42:11;;;;;;;0.00;0.00;;;;;;;;;;1760440;28;20196;-70
2022/11/13 03:43:03;;;;;;;0.00;0.00;;;;;;;;;;1761226;28;20200;-71
2022/11/13 03:43:54;;;;;;;0.00;0.00;;;;;;;;;;1760769;28;20241;-71
2022/11/13 03:44:46;;;;;;;0.00;0.00;;;;;;;;;;1760846;28;20193;-71
2022/11/13 03:45:37;;;;;;;0.00;0.00;;;;;;;;;;1761140;28;20205;-71
2022/11/13 03:46:29;;;;;;;0.00;0.00;;;;;;;;;;1761132;28;20208;-71
2022/11/13 03:47:20;;;;;;;0.00;0.00;;;;;;;;;;1761027;28;20215;-70
2022/11/13 03:48:13;;;;;;;0.00;0.00;;;;;;;;;;1761188;28;20572;-71
2022/11/13 03:49:04;;;;;;;0.00;0.00;;;;;;;;;;1760251;28;20232;-70
2022/11/13 03:49:56;;;;;;;0.00;0.00;;;;;;;;;;1761218;28;20688;-71
2022/11/13 03:50:48;;;;;;;0.00;0.00;;;;;;;;;;1761067;28;20752;-71
2022/11/13 03:51:40;;;;;;;0.00;0.00;;;;;;;;;;1755100;28;20201;-70
2022/11/13 03:52:31;;;;;;;0.00;0.00;;;;;;;;;;1751082;28;20233;-70
2022/11/13 03:53:23;;;;;;;0.00;0.00;;;;;;;;;;1754005;28;20692;-70
2022/11/13 03:54:14;;;;;;;0.00;0.00;;;;;;;;;;1760175;28;20217;-70
2022/11/13 03:55:07;;;;;;;0.00;0.00;;;;;;;;;;1755655;28;20198;-70
2022/11/13 03:55:58;;;;;;;0.00;0.00;;;;;;;;;;1753030;28;20658;-71
2022/11/13 03:56:50;;;;;;;0.00;0.00;;;;;;;;;;1760680;28;20224;-71
2022/11/13 03:57:42;;;;;;;0.00;0.00;;;;;;;;;;1760967;28;20216;-70
2022/11/13 03:58:34;;;;;;;0.00;0.00;;;;;;;;;;1760816;28;20258;-71
2022/11/13 03:59:25;;;;;;;0.00;0.00;;;;;;;;;;1753872;28;20197;-71
2022/11/13 04:00:18;;;;;;;0.00;0.00;;;;;;;;;;1761477;28;20272;-70
2022/11/13 04:01:09;;;;;;;0.00;0.00;;;;;;;;;;1761005;28;20255;-71
2022/11/13 04:02:01;;;;;;;0.00;0.00;;;;;;;;;;1758490;28;20200;-70
2022/11/13 04:02:52;;;;;;;0.00;0.00;;;;;;;;;;1750499;28;20201;-71
2022/11/13 04:03:44;;;;;;;0.00;0.00;;;;;;;;;;1757713;28;20209;-70
2022/11/13 04:04:35;;;;;;;0.00;0.00;;;;;;;;;;1758781;28;20205;-70
2022/11/13 04:05:28;;;;;;;0.00;0.00;;;;;;;;;;1754225;28;20205;-70
2022/11/13 04:06:20;;;;;;;0.00;0.00;;;;;;;;;;1756921;28;20251;-71
2022/11/13 04:07:12;;;;;;;0.00;0.00;;;;;;;;;;1760862;28;20269;-71
2022/11/13 04:08:04;;;;;;;0.00;0.00;;;;;;;;;;1760247;28;20585;-70
2022/11/13 04:08:56;;;;;;;0.00;0.00;;;;;;;;;;1756346;28;20629;-70
2022/11/13 04:09:47;;;;;;;0.00;0.00;;;;;;;;;;1753773;28;20650;-70
2022/11/13 04:10:39;;;;;;;0.00;0.00;;;;;;;;;;1754144;28;20266;-70
2022/11/13 04:11:30;;;;;;;0.00;0.00;;;;;;;;;;1754091;28;20242;-70
2022/11/13 04:12:22;;;;;;;0.00;0.00;;;;;;;;;;1753432;28;20547;-70
2022/11/13 04:13:14;;;;;;;0.00;0.00;;;;;;;;;;1754229;28;20670;-70
2022/11/13 04:14:06;;;;;;;0.00;0.00;;;;;;;;;;1753788;28;20248;-70
2022/11/13 04:14:58;;;;;;;0.00;0.00;;;;;;;;;;1753653;28;20212;-70
2022/11/13 04:15:50;;;;;;;0.00;0.00;;;;;;;;;;1753957;28;20202;-71
2022/11/13 04:16:41;;;;;;;0.00;0.00;;;;;;;;;;1753887;28;20256;-70
2022/11/13 04:17:33;;;;;;;0.00;0.00;;;;;;;;;;1760648;28;20476;-70
2022/11/13 04:18:24;;;;;;;0.00;0.00;;;;;;;;;;1760803;28;20237;-70
2022/11/13 04:19:16;;;;;;;0.00;0.00;;;;;;;;;;1760610;28;20254;-70
2022/11/13 04:20:08;;;;;;;0.00;0.00;;;;;;;;;;1761173;28;20228;-70
2022/11/13 04:21:00;;;;;;;0.00;0.00;;;;;;;;;;1755656;28;20537;-71
2022/11/13 04:21:51;;;;;;;0.00;0.00;;;;;;;;;;1756153;28;20247;-71
2022/11/13 04:22:43;;;;;;;0.00;0.00;;;;;;;;;;1762093;28;20614;-71
2022/11/13 04:23:34;;;;;;;0.00;0.00;;;;;;;;;;1761904;28;20243;-70
2022/11/13 04:24:26;;;;;;;0.00;0.00;;;;;;;;;;1762412;28;20201;-70
2022/11/13 04:25:17;;;;;;;0.00;0.00;;;;;;;;;;1760651;28;20217;-70
2022/11/13 04:26:09;;;;;;;0.00;0.00;;;;;;;;;;1750821;28;20205;-70
2022/11/13 04:27:00;;;;;;;0.00;0.00;;;;;;;;;;1754860;28;20209;-70
2022/11/13 04:27:53;;;;;;;0.00;0.00;;;;;;;;;;1755371;28;20205;-71
2022/11/13 04:28:45;;;;;;;0.00;0.00;;;;;;;;;;1754991;28;20260;-71
2022/11/13 04:29:37;;;;;;;0.00;0.00;;;;;;;;;;1755058;28;20236;-71
2022/11/13 04:30:28;;;;;;;0.00;0.00;;;;;;;;;;1755353;28;20644;-70
2022/11/13 04:31:20;;;;;;;0.00;0.00;;;;;;;;;;1755129;28;20232;-70
2022/11/13 04:32:11;;;;;;;0.00;0.00;;;;;;;;;;1754720;28;20240;-70
2022/11/13 04:33:04;;;;;;;0.00;0.00;;;;;;;;;;1754994;28;20258;-70
2022/11/13 04:33:55;;;;;;;0.00;0.00;;;;;;;;;;1754808;28;20214;-70
2022/11/13 04:34:47;;;;;;;0.00;0.00;;;;;;;;;;1755310;28;20214;-70
2022/11/13 04:35:38;;;;;;;0.00;0.00;;;;;;;;;;1755181;28;20248;-70
2022/11/13 04:36:30;;;;;;;0.00;0.00;;;;;;;;;;1755240;28;20197;-70
2022/11/13 04:37:21;;;;;;;0.00;0.00;;;;;;;;;;1754855;28;20237;-70
2022/11/13 04:38:13;;;;;;;0.00;0.00;;;;;;;;;;1755303;28;20715;-71
2022/11/13 04:39:04;;;;;;;0.00;0.00;;;;;;;;;;1754854;28;20202;-70
2022/11/13 04:39:56;;;;;;;0.00;0.00;;;;;;;;;;1755234;28;20222;-70
2022/11/13 04:40:49;;;;;;;0.00;0.00;;;;;;;;;;1755430;28;20247;-71
2022/11/13 04:42:50;;;;;;;0.00;0.00;;;;;;;;;;1759254;28;20193;-70
2022/11/13 04:43:41;;;;;;;0.00;0.00;;;;;;;;;;1761543;28;20231;-70
2022/11/13 04:44:34;;;;;;;0.00;0.00;;;;;;;;;;1762160;28;20261;-70
2022/11/13 04:45:26;;;;;;;0.10;0.10;;;;;;;;;;1762288;28;20520;-70
2022/11/13 04:46:18;;;;;;;0.00;0.00;;;;;;;;;;1761712;28;20697;-70
2022/11/13 04:47:09;;;;;;;0.00;0.00;;;;;;;;;;1761897;28;20208;-71
2022/11/13 04:48:01;;;;;;;0.00;0.00;;;;;;;;;;1761917;28;20193;-70
2022/11/13 04:48:52;;;;;;;0.00;0.00;;;;;;;;;;1761957;28;20196;-70
2022/11/13 04:49:44;;;;;;;0.00;0.00;;;;;;;;;;1762019;28;20213;-70
2022/11/13 04:50:35;;;;;;;0.00;0.00;;;;;;;;;;1762329;28;20649;-70
2022/11/13 04:51:27;;;;;;;0.00;0.00;;;;;;;;;;1761914;28;20238;-70
2022/11/13 04:52:19;;;;;;;0.00;0.00;;;;;;;;;;1761452;28;20220;-70
2022/11/13 04:53:11;;;;;;;0.00;0.00;;;;;;;;;;1762013;28;20216;-70
2022/11/13 04:54:02;;;;;;;0.00;0.00;;;;;;;;;;1761188;28;20201;-70
2022/11/13 04:54:54;;;;;;;0.00;0.00;;;;;;;;;;1758174;28;20263;-70
2022/11/13 04:55:45;;;;;;;0.00;0.00;;;;;;;;;;1753039;28;20619;-71
2022/11/13 04:56:37;;;;;;;0.08;0.08;;;;;;;;;;1760317;28;20857;-70
2022/11/13 04:57:28;;;;;;;0.00;0.00;;;;;;;;;;1755474;28;20677;-70
2022/11/13 04:58:20;;;;;;;0.00;0.00;;;;;;;;;;1755192;28;20600;-70
2022/11/13 04:59:11;;;;;;;0.00;0.00;;;;;;;;;;1754997;28;20307;-71
2022/11/13 05:00:08;;;;;;;0.10;0.10;;;;;;;;;;1755609;28;20729;-70
2022/11/13 05:00:59;;;;;;;0.00;0.00;;;;;;;;;;1754986;28;20198;-70
2022/11/13 05:01:52;;;;;;;0.00;0.00;;;;;;;;;;1754558;28;20201;-70
2022/11/13 05:02:43;;;;;;;0.00;0.00;;;;;;;;;;1754702;28;20213;-71
2022/11/13 05:03:35;;;;;;;0.00;0.00;;;;;;;;;;1754924;28;20216;-70
2022/11/13 05:04:26;;;;;;;0.10;0.10;;;;;;;;;;1754855;28;20201;-70
2022/11/13 05:05:18;;;;;;;0.00;0.00;;;;;;;;;;1755181;28;20198;-70
2022/11/13 05:06:09;;;;;;;0.00;0.00;;;;;;;;;;1755129;28;20244;-70
2022/11/13 05:07:00;;;;;;;0.00;0.00;;;;;;;;;;1754603;28;20567;-70
2022/11/13 05:07:53;;;;;;;0.00;0.00;;;;;;;;;;1754815;28;20290;-70
2022/11/13 05:08:44;;;;;;;0.00;0.00;;;;;;;;;;1754688;28;20639;-70
2022/11/13 05:09:36;;;;;;;0.00;0.00;;;;;;;;;;1755142;28;20482;-70
2022/11/13 05:10:27;;;;;;;0.00;0.00;;;;;;;;;;1757912;28;20240;-70
2022/11/13 05:11:19;;;;;;;0.00;0.00;;;;;;;;;;1761976;28;20592;-70
2022/11/13 05:12:10;;;;;;;0.00;0.00;;;;;;;;;;1761436;28;20602;-70
2022/11/13 05:13:02;;;;;;;0.00;0.00;;;;;;;;;;1761539;28;20324;-70